Category Name Link Size Date
Audio - Lossy [2019.08.28] 山崎はるか 1stアルバム「C'est Parti!!」[MP3 320K] 118.9 MiB 2019-08-27 20:29 24 3 1721
Audio - Lossy 1 [2019.08.28] ReoNa 3rdシングル「Null」[MP3 320K] 35.7 MiB 2019-08-27 15:50 29 1 1950
Audio - Lossy [TSDM自購][190828]ReoNa - Null[Hi-Res→320K] 37.2 MiB 2019-08-27 15:31 11 0 776
Audio - Lossy [Fuyuminime] One Step Closer by INTERSECTION.mp3 9.6 MiB 2019-08-27 14:42 2 2 57
Audio - Lossy [Fuyuminime] The Loneliest Girl by Nai Br.XX & Celeina Ann.mp3 7.2 MiB 2019-08-27 14:41 5 1 83
Audio - Lossy 銀河乙女 120.7 MiB 2019-08-27 14:11 3 0 227
Audio - Lossy [TSDM自購][190828]山崎はるか - C’est Parti!![320K] 119.4 MiB 2019-08-27 11:43 13 0 992
Audio - Lossy [TSDM自購][190828]TVアニメ『BEM』オリジナルサウンドトラック OUTSIDE/音楽:SOIL&“PIMP”SESSIONS[320K] 100.3 MiB 2019-08-27 11:22 10 2 722
Audio - Lossy [TSDM自購][190828]THE IDOLM@STER MILLION THE@TER WAVE 02/[Chrono-Lexica]七尾百合子(CV.伊藤美来)、永吉昴(CV.斉藤佑圭)、ロコ(CV.中村温姫)、望月杏奈(CV.夏川椎菜)、真壁瑞希(CV.阿部里果)[320K] 129.6 MiB 2019-08-27 10:51 20 1 1037
Audio - Lossy [TSDM自購][190828]『ウルトラマンタイガ』EDテーマ「ヒトツボシ」/佐咲紗花[320K] 44.7 MiB 2019-08-27 09:21 25 1 1724
Audio - Lossy [TSDM自購][190828]『ウルトラマンタイガ』OPテーマ「Buddy,steady,go!」(初回限定盤)/寺島拓篤[320K] 58.0 MiB 2019-08-27 08:28 26 1 1603
Audio - Lossy [TSDM自購][190828]TVアニメ『ゾンビランドサガ』オリジナルサウンドトラックス/音楽:高梨康治、Funta7[320K] 167.0 MiB 2019-08-27 08:11 24 5 1519
Audio - Lossy [TSDM自購][190828]TVアニメ『CAROLE & TUESDAY キャロル&チューズデイ』OP2 & ED2「Polly Jean/Not Afraid」/キャロル&チューズデイ(Vo.Nai Br.XX&Celeina Ann)[320K] 24.5 MiB 2019-08-27 06:55 27 1 2752
Audio - Lossy [TSDM自購][190828]TVアニメ『手品先輩』OP主题歌「FANTASTIC ILLUSION」(手品先輩盤)/i☆Ris[320K] 45.9 MiB 2019-08-27 06:11 23 0 1631
Audio - Lossy [TSDM自購][190828]映画『この素晴らしい世界に祝福を! 紅伝説』テーマソング「1ミリ Symphony」/Machico[320K] 58.3 MiB 2019-08-27 06:01 25 4 2559
Audio - Lossy [TSDM自購][190828]TVアニメ『通常攻撃が全体攻撃で二回攻撃のお母さんは好きですか?』OP主题歌「イヤヨイヤヨモスキノウチ!」/スピラ・スピカ[320K] 34.3 MiB 2019-08-27 05:49 12 4 1760
Audio - Lossy [TSDM自購][190828]TVアニメ『グランベルム』OP主题歌「月を追う真夜中」(期間生産限定盤)/藍井エイル[320K] 34.5 MiB 2019-08-27 05:36 26 3 2032
Audio - Lossy 1 [2019.08.28] 劇場版「この素晴らしい世界に祝福を! 紅伝説」OPテーマ「1ミリ Symphony」/Machico [MP3 320K] 57.6 MiB 2019-08-27 05:13 43 11 3682
Audio - Lossy [2019.08.28] TVアニメ「手品先輩」OPテーマ「FANTASTIC ILLUSION」/i☆Ris [MP3 320K] 45.5 MiB 2019-08-27 05:13 49 6 3898
Audio - Lossy 2 [2019.08.28] TVアニメ「通常攻撃が全体攻撃で二回攻撃のお母さんは好きですか?」OPテーマ「イヤヨイヤヨモスキノウチ!」/スピラ・スピカ [MP3 320K] 34.3 MiB 2019-08-27 05:12 40 4 2614
Audio - Lossy [2019.08.28] TVアニメ「グランベルム」OPテーマ「月を追う真夜中」/藍井エイル [MP3 320K] 34.0 MiB 2019-08-27 05:12 41 4 3487
Audio - Lossy [190804] miwa 25th Single - Reboot [MP3] 79.1 MiB 2019-08-27 03:31 10 2 694
Audio - Lossy [190814] Aimer 17th Single - Torches ("Vinland Saga" ED) [MP3] 108.6 MiB 2019-08-27 03:25 10 0 755
Audio - Lossy 멜론 2019년 08월 25일 [오후 2시 기준] TOP 100 849.4 MiB 2019-08-27 00:32 1 0 71
Audio - Lossy NECRONOMIDOL [2015~2019] 568.2 MiB 2019-08-26 20:07 1 0 114
Audio - Lossy [2019.08.25] TVアニメ「戦姫絶唱シンフォギアXV」第1話挿入歌「FINAL COMMANDER」/水樹奈々 [MP3 320K] 10.5 MiB 2019-08-26 14:46 50 6 7088
Audio - Lossy 9 Dragon Ball Z 1-9 - Spanish dub sync to DVDBox 486.9 MiB 2019-08-26 11:52 1 0 39
Audio - Lossy [Single] 水樹奈々 - FINAL COMMANDER [MP3] 10.6 MiB 2019-08-26 11:00 7 0 637
Audio - Lossy 2 [2019.08.26] TVアニメ「からかい上手の高木さん2」ED6テーマ「あなたに」/高木さん(CV.高橋李依) [MP3 320K] 8.0 MiB 2019-08-25 19:12 40 3 3753
Audio - Lossy [Fuyuminime] Tenki no Ko Original Soundtrack.rar 157.1 MiB 2019-08-25 16:14 13 0 314
Audio - Lossy [Fuyuminime] Move Mountains by Angela.mp3 7.4 MiB 2019-08-25 16:12 4 2 96
Audio - Lossy [Fuyuminime] TEMPEST by Kaori Ishihara.mp3 8.8 MiB 2019-08-25 16:11 4 1 83
Audio - Lossy [Fuyuminime] Exceed by Miyuu.mp3 9.6 MiB 2019-08-25 16:09 1 3 85
Audio - Lossy [Fuyuminime] Inferno (インフェルノ) by Mrs.GREEN APPLE.mp3 8.3 MiB 2019-08-25 16:09 6 0 238
Audio - Lossy [Fuyuminime] METANOIA by Nana Mizuki.mp3 10.9 MiB 2019-08-25 16:07 2 0 104
Audio - Lossy [Fuyuminime] Konayuki (粉雪) by Takagi-san (Rie Takahashi).mp3 12.6 MiB 2019-08-25 16:06 9 0 151
Audio - Lossy [Fuyuminime] Gong by WANIMA.mp3 11.3 MiB 2019-08-25 16:05 1 1 194
Audio - Lossy [Fuyuminime] Zero Centimeter by Yuiko Oohara.mp3 9.8 MiB 2019-08-25 16:04 3 0 74
Audio - Lossy [190807] Haruka Fukuhara 1st Single - Mikansei na Hikaritachi ("BORUTO -NARUTO NEXT GENERATIONS-" ED10) [MP3] 66.6 MiB 2019-08-24 21:45 2 1 308
Audio - Lossy (MP3 320kbps) SOUND of WHEN THEY CRY キコニアのなく頃に - 白金のエンピレ 125.9 MiB 2019-08-24 05:57 4 0 205
Audio - Lossy [Fuyuminime] Hibari (雲雀) by ASCA.mp3 10.7 MiB 2019-08-23 16:26 4 0 163
Audio - Lossy 멜론 2019년 08월 23일 [오후 9시 기준] TOP 100 847.8 MiB 2019-08-23 14:23 1 0 98
Audio - Lossy [Nemuri] Tadokoro Azusa 田所あずさ (2014-2019) Discography / Music Collection [20 CDs] [MP3] 961.6 MiB 2019-08-23 12:26 7 2 206
Audio - Lossy [Nemuri] THE iDOLM@STER Shiny Colors (2018-2019) Discography / Music Collection [11 CDs] [MP3] 556.7 MiB 2019-08-23 12:15 8 1 329
Audio - Lossy 2 [Nemuri] BanG Dream! バンドリ!(2016-2019) Discography / Music Collection [59 CDs] [MP3] 3.3 GiB 2019-08-23 11:57 17 5 432
Audio - Lossy 1 FREE FLOW FLAVA [MP3] 363.7 MiB 2019-08-23 09:56 0 1 130
Audio - Lossy Alice Gear Aegis Sound GameRip (Voice + OST/BGM + SE) - アリス・ギア・アイギス アリスギアアイギス 1.6 GiB 2019-08-23 06:23 2 1 177
Audio - Lossy Hatsuki Yura 葉月ゆら (2006-2019) Discography [71 CDs][MP3] 5.7 GiB 2019-08-23 00:31 6 2 244
Audio - Lossy 3 TRICK / トリック - OST (MP3) 102.3 MiB 2019-08-22 15:20 7 1 576
Audio - Lossy [NoobTracks] Space Battleship Yamato 2202 Original Soundtrack vol.01 [MP3V0] 137.2 MiB 2019-08-21 17:15 5 0 192
Audio - Lossy [Hakata Ramen] Pokémon Movie 20 - I Choose You! [Multi-Audio-Tracks] HR-DR/HR-J 1.1 GiB 2019-08-21 16:38 2 1 46
Audio - Lossy Hello, Happy World! - Egao Sing a Song [MP3] 20.4 MiB 2019-08-21 13:06 2 1 111
Audio - Lossy [TSDM自購][190818]喜多村英梨 - ILLUSION DREAM[320K] 110.3 MiB 2019-08-21 10:53 11 3 2007
Audio - Lossy [TSDM自購][190821]『BanG Dream! バンドリ!』Argonavis 2nd Single「STARTING OVER/ギフト」[Hi-Res→320K] 68.2 MiB 2019-08-21 08:57 17 2 1600
Audio - Lossy 1 [AAC-tan] Fate/stay night [Heaven's Feel] II. lost butterfly Original Soundtrack 劇場版 フェイト/ステイナイト Heaven's Feel II オリジナルサウンドトラック | Kajiura Yuki 梶浦由記 154.7 MiB 2019-08-21 08:04 19 2 929
Audio - Lossy The Faraway Paladin Talk to Text 551.5 MiB 2019-08-21 06:41 1 1 40
Audio - Lossy 1 That Time I got reincarnated as a Slime (Tensei Shitara Slime Datta Ken) LN TTT mp3s 1.0 GiB 2019-08-21 05:40 1 1 70
Audio - Lossy JK Haru Summer LN TTT 110.3 MiB 2019-08-21 04:19 1 2 75
Audio - Lossy 멜론 (Melon) 08월 20일 실시간 TOP 100 849.6 MiB 2019-08-21 02:29 1 0 56
Audio - Lossy 2 [190821] Star☆Twinkle Precure Image Song File [MP3] 121.6 MiB 2019-08-21 02:26 17 0 630
Audio - Lossy [TSDM自購][190821]秋元康総合プロデュース、 22/7(ナナブンノニジュウニ) 4thシングル「何もしてあげられない」[Hi-Res→320K] 59.4 MiB 2019-08-21 01:41 9 0 939
Audio - Lossy [TSDM自購][190821]TVアニメ『とある科学の一方通行』OPテーマ「Shadow is the Light」[DVD付初回限定アニメ盤]/THE SIXTH LIE[320K] 38.1 MiB 2019-08-21 00:27 15 2 1895
Audio - Lossy [TSDM自購][190821]TVアニメ『Dr.STONE』OPテーマ「Good Morning World!」[DVD付Dr.STONE盤]/BURNOUT SYNDROMES[320K] 39.4 MiB 2019-08-21 00:11 20 0 1619
Audio - Lossy [TSDM自購][190821]TVアニメ『COP CRAFT コップクラフト』OPテーマ「楽園都市」[アニメジャケット盤]/オーイシマサヨシ[320K] 67.2 MiB 2019-08-20 23:57 17 1 2003
Audio - Lossy [TSDM自購][190821]TVアニメ『ヴィンランド・サガ』OPテーマ「MUKANJYO」[DVD付初回生産限定盤]/Survive Said The Prophet[320K] 24.1 MiB 2019-08-20 23:40 14 2 1364
Audio - Lossy [TSDM自購][190821]TVアニメ『異世界チート魔術師』EDテーマ「小さな想い」/吾妻凛(CV.高橋李依)[320K] 44.0 MiB 2019-08-20 23:26 12 1 1331
Audio - Lossy [TSDM自購][190821]TVアニメ『彼方のアストラ』EDテーマ「Glow at the Velocity of Light」/安月名莉子[Hi-Res→320K] 37.9 MiB 2019-08-20 23:14 23 2 1809
Audio - Lossy 1 [2019.08.21] TVアニメ「Dr.STONE」OPテーマ「Good Morning World!」/BURNOUT SYNDROMES [MP3 320K] 39.4 MiB 2019-08-20 18:16 39 1 2347
Audio - Lossy [2019.08.21] TVアニメ「とある科学の一方通行」OPテーマ「Shadow is the Light」/THE SIXTH LIE [MP3 320K] 35.8 MiB 2019-08-20 18:16 32 4 2387
Audio - Lossy [2019.08.21] TVアニメ「コップクラフト」OPテーマ「楽園都市」/オーイシマサヨシ [MP3 320K] 65.3 MiB 2019-08-20 18:16 35 3 2453
Audio - Lossy [2019.08.21] TVアニメ「ヴィンランド・サガ」OPテーマ「MUKANJYO」/Survive Said The Prophet [MP3 320K] 23.1 MiB 2019-08-20 18:16 22 0 1842
Audio - Lossy 1 [2019.08.21] TVアニメ「異世界チート魔術師」EDテーマ「小さな想い」/吾妻凛(CV.高橋李依) [MP3 320K] 43.4 MiB 2019-08-20 18:16 23 2 2399
Audio - Lossy [2019.08.21] ONGEKI(オンゲキ) Vocal Collection 05 [MP3 320K] 120.9 MiB 2019-08-20 17:12 18 4 931
Audio - Lossy 1 [2019.08.21] TVアニメ「彼方のアストラ」EDテーマ「Glow at the Velocity of Light」/安月名莉子 [MP3 320K] 37.8 MiB 2019-08-20 17:11 40 5 2616
Audio - Lossy [2019.08.21] 22/7(ナナブンノニジュウニ) 4thシングル「何もしてあげられない」[MP3 320K] 54.6 MiB 2019-08-20 16:32 14 0 1313